Nashville, Tennessee
Traffic Map
Current Weather Conditions
Nashville, Tennessee
Few Clouds
Few Clouds
42°
Feels Like: 36°
Wind Chill: 36° Ceiling: Unl
Heat Index: 42° Visibility: 10mi
Dew Point: 23° Wind: 12mph
Humidity: 47% Direction: 190° (S)
Pressure: 30.15in Gusts: 0mph
Raw Report DataKBNA 290753Z 19010KT 10SM FEW250 06/M05 A3015 RMK AO2 SLP210 T00561050
Traffic Incident Summary
Active as of:
Severity:
Category:
InformationThere was an issue retrieving the traffic information for this location. Please try a different location or try again shortly.
Advertisements
Track Severe Weather on mobile